Search for airport 
image banner adimage banner adimage banner ad
image banner ad

IA95 - Hcph

Located in Webster City, United States

ICAO - IA95, IATA -

Data provided by Airmate  

General information

Coordinates: N42°27'32" W93°49'26"
Elevation is 1080 feet MSL.
Magnetic variation is 04° East
View others Airports in Iowa

Operational data

Special qualification required
Current time UTC:
Current local time:
Weather at : KEBS - Webster City Muni ( 4 km )
METAR: KEBS 150915Z AUTO 34003KT 10SM CLR 13/09 A3009 RMK AO2
View NOTAMs / SUP AIP / TFR affecting this airport [VIEW]
Communications frequencies: [VIEW]

Runways:

Airport contact information

Address: Webster City United States

Satellite view of IA95